UTAVUTSB

Guest
Details From UTAV - TURKMENABAT
To UTSB - BUKHARA
Flight Number -
Tags generated
Created
Modified
Stats Distance 58 nm / 107 km
Max Altitude 0 ft / 0 m
Waypoints 2
Social Downloads 0
Likes 0
Share VATSIM

Download

Looking for another format? Having issues loading an existing format? Contact us
Advertisement - Login to hide

Notes

Basic altitude profile: - Ascent Rate: 2500ft/min - Ascent Speed: 250kts - Cruise Altitude: 35000ft - Cruise Speed: 420kts - Descent Rate: 1500ft/min - Descent Speed: 250kts Options: - Use NATs: yes - Use PACOTS: yes - Use low airways: yes - Use high airways: yes

Route

UTAV UTSB

ID Type Via Altitude Latitude Longitude Leg Dist Tot Dist Heading (true) Name
O UTAV APT - 0 ft / 0 m 39.08333˚ 63.61333˚ - 0 nm - TURKMENABAT
O UTSB APT - 0 ft / 0 m 39.77500˚ 64.48333˚ 57 nm 57 nm 44° / 44° BUKHARA

Altitude Profile

Advertisement - Login to hide

UTAV

Details ICAO UTAV
Name TURKMENABAT
Region Tajikistan, Turkmenistan and Uzbekistan
Timezone Asia/Ashgabat (UTC+5.0)
Stats Elevation 630 ft / 192 m (AMSL)
Location 39.083333° 63.613334°
Runways 1
Magnetic Variation 5.072° E

METAR

UTAV 210100Z 23006KT 9999 FEW050CB BKN100 17/04 Q1014 NOSIG

Decode

TAF

Not found

Departure Runways

ID Width Length Bearing (true) Bearing (mag) Surface Threshold Offset Overrun Length
15 138 ft / 42 m 8,945 ft / 2,727 m 155.02° 149.95° Asphalt 0 ft / 0 m 0 ft / 0 m
33 138 ft / 42 m 8,945 ft / 2,727 m 335.03° 329.96° Asphalt 0 ft / 0 m 0 ft / 0 m

UTSB

Details ICAO UTSB (BHK)
Name BUKHARA
Region Tajikistan, Turkmenistan and Uzbekistan
Timezone Asia/Samarkand (UTC+5.0)
Stats Elevation 751 ft / 229 m (AMSL)
Location 39.775000° 64.483334°
Runways 1
Magnetic Variation 5.267° E

METAR

UTSB 210130Z 09006KT CAVOK 16/06 Q1015 R01/CLRD70 NOSIG

Decode

TAF

Not found

Destination Runways

ID Width Length Bearing (true) Bearing (mag) Surface Threshold Offset Overrun Length
01 147 ft / 45 m 9,909 ft / 3,020 m 10.87° 5.60° Asphalt 0 ft / 0 m 177 ft / 54 m
19 147 ft / 45 m 9,909 ft / 3,020 m 190.88° 185.61° Asphalt 0 ft / 0 m 177 ft / 54 m

Approach Navaids

Runway Type Ident Frequency Range Bearing (true) Bearing (mag) Slope Elevation
01 Localiser IUH 110.30 MHz 18 nm / 33 km 10.88° 5.61° - 753 ft / 230 m (AMSL)
01 Glidescope IUH 110.30 MHz 10 nm / 19 km 10.88° 5.61° 3.00° 736 ft / 224 m (AMSL)